sensor_id;sensor_type;location;lat;lon;timestamp;P1;durP1;ratioP1;P2;durP2;ratioP2
17595;SDS011;8916;47.086;15.920;2024-03-07T00:00:31;32.03;;;11.65;;
17595;SDS011;8916;47.086;15.920;2024-03-07T00:03:00;45.03;;;13.85;;
17595;SDS011;8916;47.086;15.920;2024-03-07T00:05:31;32.03;;;12.32;;
17595;SDS011;8916;47.086;15.920;2024-03-07T00:08:00;26.15;;;10.93;;
17595;SDS011;8916;47.086;15.920;2024-03-07T00:10:29;25.95;;;10.82;;
17595;SDS011;8916;47.086;15.920;2024-03-07T00:13:00;27.38;;;11.10;;
17595;SDS011;8916;47.086;15.920;2024-03-07T00:15:30;28.92;;;11.05;;
17595;SDS011;8916;47.086;15.920;2024-03-07T00:17:59;30.10;;;10.73;;
17595;SDS011;8916;47.086;15.920;2024-03-07T00:20:29;26.25;;;10.35;;
17595;SDS011;8916;47.086;15.920;2024-03-07T00:22:58;30.70;;;12.05;;
17595;SDS011;8916;47.086;15.920;2024-03-07T00:25:27;37.72;;;12.10;;
17595;SDS011;8916;47.086;15.920;2024-03-07T00:27:58;30.17;;;12.88;;
17595;SDS011;8916;47.086;15.920;2024-03-07T00:30:31;32.28;;;12.25;;
17595;SDS011;8916;47.086;15.920;2024-03-07T00:33:01;32.10;;;12.32;;
17595;SDS011;8916;47.086;15.920;2024-03-07T00:35:31;37.78;;;13.32;;
17595;SDS011;8916;47.086;15.920;2024-03-07T00:38:00;33.47;;;12.18;;
17595;SDS011;8916;47.086;15.920;2024-03-07T00:40:30;44.40;;;12.93;;
17595;SDS011;8916;47.086;15.920;2024-03-07T00:43:02;37.75;;;12.18;;
17595;SDS011;8916;47.086;15.920;2024-03-07T00:45:33;40.47;;;13.82;;
17595;SDS011;8916;47.086;15.920;2024-03-07T00:48:02;38.95;;;12.93;;
17595;SDS011;8916;47.086;15.920;2024-03-07T00:50:32;37.53;;;13.38;;
17595;SDS011;8916;47.086;15.920;2024-03-07T00:53:01;39.22;;;10.77;;
17595;SDS011;8916;47.086;15.920;2024-03-07T00:55:31;28.70;;;10.52;;
17595;SDS011;8916;47.086;15.920;2024-03-07T00:58:01;31.13;;;11.88;;
17595;SDS011;8916;47.086;15.920;2024-03-07T01:00:31;32.60;;;12.32;;
17595;SDS011;8916;47.086;15.920;2024-03-07T01:03:00;33.85;;;12.50;;
17595;SDS011;8916;47.086;15.920;2024-03-07T01:05:30;34.97;;;11.38;;
17595;SDS011;8916;47.086;15.920;2024-03-07T01:07:59;30.98;;;11.35;;
17595;SDS011;8916;47.086;15.920;2024-03-07T01:10:28;26.50;;;10.60;;
17595;SDS011;8916;47.086;15.920;2024-03-07T01:12:57;31.73;;;11.70;;
17595;SDS011;8916;47.086;15.920;2024-03-07T01:15:31;27.33;;;10.95;;
17595;SDS011;8916;47.086;15.920;2024-03-07T01:18:00;30.77;;;11.35;;
17595;SDS011;8916;47.086;15.920;2024-03-07T01:20:30;24.58;;;10.38;;
17595;SDS011;8916;47.086;15.920;2024-03-07T01:22:59;23.10;;;8.25;;
17595;SDS011;8916;47.086;15.920;2024-03-07T01:25:28;20.27;;;8.40;;
17595;SDS011;8916;47.086;15.920;2024-03-07T01:28:01;20.48;;;9.48;;
17595;SDS011;8916;47.086;15.920;2024-03-07T01:30:33;19.85;;;8.45;;
17595;SDS011;8916;47.086;15.920;2024-03-07T01:33:02;19.45;;;8.35;;
17595;SDS011;8916;47.086;15.920;2024-03-07T01:35:32;20.55;;;8.73;;
17595;SDS011;8916;47.086;15.920;2024-03-07T01:38:01;20.95;;;8.55;;
17595;SDS011;8916;47.086;15.920;2024-03-07T01:40:31;22.70;;;9.25;;
17595;SDS011;8916;47.086;15.920;2024-03-07T01:43:00;19.27;;;8.32;;
17595;SDS011;8916;47.086;15.920;2024-03-07T01:45:30;22.50;;;8.32;;
17595;SDS011;8916;47.086;15.920;2024-03-07T01:48:00;21.40;;;8.48;;
17595;SDS011;8916;47.086;15.920;2024-03-07T01:50:30;24.88;;;8.70;;
17595;SDS011;8916;47.086;15.920;2024-03-07T01:52:59;24.67;;;8.93;;
17595;SDS011;8916;47.086;15.920;2024-03-07T01:55:29;21.65;;;8.52;;
17595;SDS011;8916;47.086;15.920;2024-03-07T01:57:58;21.27;;;9.13;;
17595;SDS011;8916;47.086;15.920;2024-03-07T02:00:30;16.50;;;8.57;;
17595;SDS011;8916;47.086;15.920;2024-03-07T02:03:01;20.33;;;8.02;;
17595;SDS011;8916;47.086;15.920;2024-03-07T02:05:30;18.42;;;7.65;;
17595;SDS011;8916;47.086;15.920;2024-03-07T02:08:00;19.73;;;8.70;;
17595;SDS011;8916;47.086;15.920;2024-03-07T02:10:29;23.13;;;8.77;;
17595;SDS011;8916;47.086;15.920;2024-03-07T02:12:58;19.30;;;8.23;;
17595;SDS011;8916;47.086;15.920;2024-03-07T02:15:28;22.42;;;8.15;;
17595;SDS011;8916;47.086;15.920;2024-03-07T02:17:57;22.75;;;8.50;;
17595;SDS011;8916;47.086;15.920;2024-03-07T02:20:28;23.77;;;8.05;;
17595;SDS011;8916;47.086;15.920;2024-03-07T02:22:58;19.20;;;7.72;;
17595;SDS011;8916;47.086;15.920;2024-03-07T02:25:27;21.20;;;8.18;;
17595;SDS011;8916;47.086;15.920;2024-03-07T02:27:57;18.77;;;7.75;;
17595;SDS011;8916;47.086;15.920;2024-03-07T02:30:26;19.45;;;8.88;;
17595;SDS011;8916;47.086;15.920;2024-03-07T02:32:59;19.08;;;8.38;;
17595;SDS011;8916;47.086;15.920;2024-03-07T02:35:34;18.65;;;8.20;;
17595;SDS011;8916;47.086;15.920;2024-03-07T02:38:05;23.08;;;8.95;;
17595;SDS011;8916;47.086;15.920;2024-03-07T02:40:34;17.75;;;8.40;;
17595;SDS011;8916;47.086;15.920;2024-03-07T02:43:03;21.98;;;7.72;;
17595;SDS011;8916;47.086;15.920;2024-03-07T02:45:34;18.05;;;7.57;;
17595;SDS011;8916;47.086;15.920;2024-03-07T02:48:04;20.83;;;8.38;;
17595;SDS011;8916;47.086;15.920;2024-03-07T02:50:37;18.10;;;8.10;;
17595;SDS011;8916;47.086;15.920;2024-03-07T02:53:07;17.85;;;7.80;;
17595;SDS011;8916;47.086;15.920;2024-03-07T02:55:37;17.55;;;8.02;;
17595;SDS011;8916;47.086;15.920;2024-03-07T02:58:06;18.17;;;8.07;;
17595;SDS011;8916;47.086;15.920;2024-03-07T03:00:35;20.52;;;7.88;;
17595;SDS011;8916;47.086;15.920;2024-03-07T03:03:04;19.60;;;9.02;;
17595;SDS011;8916;47.086;15.920;2024-03-07T03:05:33;25.20;;;8.95;;
17595;SDS011;8916;47.086;15.920;2024-03-07T03:08:03;21.27;;;8.35;;
17595;SDS011;8916;47.086;15.920;2024-03-07T03:10:35;19.48;;;7.47;;
17595;SDS011;8916;47.086;15.920;2024-03-07T03:13:05;19.60;;;7.93;;
17595;SDS011;8916;47.086;15.920;2024-03-07T03:15:34;20.35;;;8.18;;
17595;SDS011;8916;47.086;15.920;2024-03-07T03:18:05;19.98;;;8.38;;
17595;SDS011;8916;47.086;15.920;2024-03-07T03:20:34;21.17;;;9.55;;
17595;SDS011;8916;47.086;15.920;2024-03-07T03:23:06;24.17;;;8.90;;
17595;SDS011;8916;47.086;15.920;2024-03-07T03:25:49;18.88;;;8.48;;
17595;SDS011;8916;47.086;15.920;2024-03-07T03:28:18;19.27;;;8.23;;
17595;SDS011;8916;47.086;15.920;2024-03-07T03:30:49;17.55;;;8.43;;
17595;SDS011;8916;47.086;15.920;2024-03-07T03:33:19;19.85;;;7.82;;
17595;SDS011;8916;47.086;15.920;2024-03-07T03:35:49;20.58;;;9.00;;
17595;SDS011;8916;47.086;15.920;2024-03-07T03:38:18;21.38;;;8.77;;
17595;SDS011;8916;47.086;15.920;2024-03-07T03:40:50;21.73;;;9.60;;
17595;SDS011;8916;47.086;15.920;2024-03-07T03:43:19;16.65;;;7.88;;
17595;SDS011;8916;47.086;15.920;2024-03-07T03:45:48;16.38;;;6.50;;
17595;SDS011;8916;47.086;15.920;2024-03-07T03:48:17;18.30;;;7.38;;
17595;SDS011;8916;47.086;15.920;2024-03-07T03:50:46;19.20;;;8.02;;
17595;SDS011;8916;47.086;15.920;2024-03-07T03:53:16;21.17;;;7.78;;
17595;SDS011;8916;47.086;15.920;2024-03-07T03:55:45;20.52;;;8.65;;
17595;SDS011;8916;47.086;15.920;2024-03-07T03:58:15;20.58;;;8.68;;
17595;SDS011;8916;47.086;15.920;2024-03-07T04:00:45;20.00;;;8.38;;
17595;SDS011;8916;47.086;15.920;2024-03-07T04:03:14;19.70;;;8.48;;
17595;SDS011;8916;47.086;15.920;2024-03-07T04:05:43;18.00;;;7.53;;
17595;SDS011;8916;47.086;15.920;2024-03-07T04:08:14;15.75;;;7.50;;
17595;SDS011;8916;47.086;15.920;2024-03-07T04:10:43;18.85;;;7.72;;
17595;SDS011;8916;47.086;15.920;2024-03-07T04:13:13;17.85;;;8.98;;
17595;SDS011;8916;47.086;15.920;2024-03-07T04:15:43;19.98;;;8.55;;
17595;SDS011;8916;47.086;15.920;2024-03-07T04:18:12;16.23;;;8.00;;
17595;SDS011;8916;47.086;15.920;2024-03-07T04:20:42;19.65;;;7.53;;
17595;SDS011;8916;47.086;15.920;2024-03-07T04:23:12;19.98;;;7.80;;
17595;SDS011;8916;47.086;15.920;2024-03-07T04:25:41;23.10;;;8.77;;
17595;SDS011;8916;47.086;15.920;2024-03-07T04:28:10;16.58;;;7.40;;
17595;SDS011;8916;47.086;15.920;2024-03-07T04:30:39;25.30;;;10.00;;
17595;SDS011;8916;47.086;15.920;2024-03-07T04:33:11;18.13;;;8.63;;
17595;SDS011;8916;47.086;15.920;2024-03-07T04:35:41;29.83;;;9.70;;
17595;SDS011;8916;47.086;15.920;2024-03-07T04:38:10;24.40;;;9.15;;
17595;SDS011;8916;47.086;15.920;2024-03-07T04:40:43;19.17;;;8.05;;
17595;SDS011;8916;47.086;15.920;2024-03-07T04:43:12;21.75;;;8.63;;
17595;SDS011;8916;47.086;15.920;2024-03-07T04:45:43;21.50;;;9.75;;
17595;SDS011;8916;47.086;15.920;2024-03-07T04:48:14;21.65;;;9.80;;
17595;SDS011;8916;47.086;15.920;2024-03-07T04:50:43;28.95;;;13.20;;
17595;SDS011;8916;47.086;15.920;2024-03-07T04:53:13;26.90;;;11.77;;
17595;SDS011;8916;47.086;15.920;2024-03-07T04:55:43;21.02;;;9.90;;
17595;SDS011;8916;47.086;15.920;2024-03-07T04:58:12;21.38;;;9.27;;
17595;SDS011;8916;47.086;15.920;2024-03-07T05:00:41;18.65;;;7.80;;
17595;SDS011;8916;47.086;15.920;2024-03-07T05:03:10;21.58;;;8.25;;
17595;SDS011;8916;47.086;15.920;2024-03-07T05:05:40;25.23;;;10.10;;
17595;SDS011;8916;47.086;15.920;2024-03-07T05:08:10;16.65;;;8.13;;
17595;SDS011;8916;47.086;15.920;2024-03-07T05:10:39;18.30;;;7.90;;
17595;SDS011;8916;47.086;15.920;2024-03-07T05:13:09;25.05;;;9.77;;
17595;SDS011;8916;47.086;15.920;2024-03-07T05:15:38;26.33;;;9.48;;
17595;SDS011;8916;47.086;15.920;2024-03-07T05:18:08;25.55;;;9.48;;
17595;SDS011;8916;47.086;15.920;2024-03-07T05:20:41;25.95;;;9.57;;
17595;SDS011;8916;47.086;15.920;2024-03-07T05:23:11;17.63;;;7.68;;
17595;SDS011;8916;47.086;15.920;2024-03-07T05:25:44;19.83;;;8.38;;
17595;SDS011;8916;47.086;15.920;2024-03-07T05:28:13;15.75;;;7.40;;
17595;SDS011;8916;47.086;15.920;2024-03-07T05:30:42;22.05;;;8.07;;
17595;SDS011;8916;47.086;15.920;2024-03-07T05:33:11;20.27;;;7.78;;
17595;SDS011;8916;47.086;15.920;2024-03-07T05:35:47;18.45;;;8.50;;
17595;SDS011;8916;47.086;15.920;2024-03-07T05:38:17;22.83;;;9.13;;
17595;SDS011;8916;47.086;15.920;2024-03-07T05:40:46;20.75;;;8.45;;
17595;SDS011;8916;47.086;15.920;2024-03-07T05:43:16;23.83;;;9.45;;
17595;SDS011;8916;47.086;15.920;2024-03-07T05:45:45;29.40;;;11.73;;
17595;SDS011;8916;47.086;15.920;2024-03-07T05:48:15;26.35;;;10.55;;
17595;SDS011;8916;47.086;15.920;2024-03-07T05:50:47;21.33;;;8.52;;
17595;SDS011;8916;47.086;15.920;2024-03-07T05:53:16;18.10;;;7.93;;
17595;SDS011;8916;47.086;15.920;2024-03-07T05:55:45;18.88;;;8.65;;
17595;SDS011;8916;47.086;15.920;2024-03-07T05:58:15;17.88;;;8.18;;
17595;SDS011;8916;47.086;15.920;2024-03-07T06:00:44;19.70;;;8.40;;
17595;SDS011;8916;47.086;15.920;2024-03-07T06:03:17;22.67;;;10.10;;
17595;SDS011;8916;47.086;15.920;2024-03-07T06:05:48;22.88;;;9.50;;
17595;SDS011;8916;47.086;15.920;2024-03-07T06:08:18;34.53;;;12.55;;
17595;SDS011;8916;47.086;15.920;2024-03-07T06:10:48;34.25;;;11.93;;
17595;SDS011;8916;47.086;15.920;2024-03-07T06:13:17;41.60;;;12.70;;
17595;SDS011;8916;47.086;15.920;2024-03-07T06:15:47;37.38;;;12.93;;
17595;SDS011;8916;47.086;15.920;2024-03-07T06:18:16;35.78;;;12.68;;
17595;SDS011;8916;47.086;15.920;2024-03-07T06:20:45;37.08;;;14.02;;
17595;SDS011;8916;47.086;15.920;2024-03-07T06:23:16;34.90;;;12.32;;
17595;SDS011;8916;47.086;15.920;2024-03-07T06:25:46;28.55;;;11.07;;
17595;SDS011;8916;47.086;15.920;2024-03-07T06:28:18;34.13;;;11.88;;
17595;SDS011;8916;47.086;15.920;2024-03-07T06:30:47;28.33;;;12.32;;
17595;SDS011;8916;47.086;15.920;2024-03-07T06:33:16;33.58;;;12.63;;
17595;SDS011;8916;47.086;15.920;2024-03-07T06:35:49;28.17;;;12.55;;
17595;SDS011;8916;47.086;15.920;2024-03-07T06:38:20;31.77;;;12.50;;
17595;SDS011;8916;47.086;15.920;2024-03-07T06:40:50;23.13;;;10.00;;
17595;SDS011;8916;47.086;15.920;2024-03-07T06:43:20;23.35;;;9.73;;
17595;SDS011;8916;47.086;15.920;2024-03-07T06:45:49;22.05;;;9.13;;
17595;SDS011;8916;47.086;15.920;2024-03-07T06:48:19;23.70;;;11.10;;
17595;SDS011;8916;47.086;15.920;2024-03-07T06:50:48;25.77;;;9.88;;
17595;SDS011;8916;47.086;15.920;2024-03-07T06:53:18;20.02;;;9.38;;
17595;SDS011;8916;47.086;15.920;2024-03-07T06:55:49;21.35;;;9.80;;
17595;SDS011;8916;47.086;15.920;2024-03-07T06:58:20;22.88;;;9.13;;
17595;SDS011;8916;47.086;15.920;2024-03-07T07:00:50;25.38;;;10.13;;
17595;SDS011;8916;47.086;15.920;2024-03-07T07:03:21;22.40;;;10.13;;
17595;SDS011;8916;47.086;15.920;2024-03-07T07:05:51;23.00;;;10.43;;
17595;SDS011;8916;47.086;15.920;2024-03-07T07:08:21;25.30;;;10.02;;
17595;SDS011;8916;47.086;15.920;2024-03-07T07:10:53;22.33;;;9.77;;
17595;SDS011;8916;47.086;15.920;2024-03-07T07:13:23;19.52;;;10.20;;
17595;SDS011;8916;47.086;15.920;2024-03-07T07:15:53;22.27;;;9.35;;
17595;SDS011;8916;47.086;15.920;2024-03-07T07:18:22;19.70;;;9.65;;
17595;SDS011;8916;47.086;15.920;2024-03-07T07:20:52;22.60;;;9.70;;
17595;SDS011;8916;47.086;15.920;2024-03-07T07:23:21;21.23;;;9.95;;
17595;SDS011;8916;47.086;15.920;2024-03-07T07:25:53;22.17;;;9.93;;
17595;SDS011;8916;47.086;15.920;2024-03-07T07:28:22;21.02;;;8.90;;
17595;SDS011;8916;47.086;15.920;2024-03-07T07:30:51;25.05;;;9.32;;
17595;SDS011;8916;47.086;15.920;2024-03-07T07:33:21;19.17;;;8.90;;
17595;SDS011;8916;47.086;15.920;2024-03-07T07:35:50;24.10;;;11.55;;
17595;SDS011;8916;47.086;15.920;2024-03-07T07:38:20;34.00;;;12.07;;
17595;SDS011;8916;47.086;15.920;2024-03-07T07:40:49;22.13;;;9.55;;
17595;SDS011;8916;47.086;15.920;2024-03-07T07:43:19;22.73;;;9.48;;
17595;SDS011;8916;47.086;15.920;2024-03-07T07:46:03;34.47;;;13.00;;
17595;SDS011;8916;47.086;15.920;2024-03-07T07:48:33;103.25;;;32.72;;
17595;SDS011;8916;47.086;15.920;2024-03-07T07:51:02;82.72;;;28.45;;
17595;SDS011;8916;47.086;15.920;2024-03-07T07:53:33;47.00;;;17.25;;
17595;SDS011;8916;47.086;15.920;2024-03-07T07:56:03;21.60;;;9.02;;
17595;SDS011;8916;47.086;15.920;2024-03-07T07:58:34;15.40;;;7.05;;
17595;SDS011;8916;47.086;15.920;2024-03-07T08:01:03;14.23;;;6.20;;
17595;SDS011;8916;47.086;15.920;2024-03-07T08:03:35;13.50;;;6.55;;
17595;SDS011;8916;47.086;15.920;2024-03-07T08:06:05;12.48;;;5.85;;
17595;SDS011;8916;47.086;15.920;2024-03-07T08:08:34;10.90;;;5.28;;
17595;SDS011;8916;47.086;15.920;2024-03-07T08:11:03;10.27;;;5.38;;
17595;SDS011;8916;47.086;15.920;2024-03-07T08:13:32;12.00;;;6.10;;
17595;SDS011;8916;47.086;15.920;2024-03-07T08:16:04;10.57;;;5.80;;
17595;SDS011;8916;47.086;15.920;2024-03-07T08:18:33;11.30;;;5.72;;
17595;SDS011;8916;47.086;15.920;2024-03-07T08:21:03;10.48;;;5.47;;
17595;SDS011;8916;47.086;15.920;2024-03-07T08:23:33;8.50;;;5.05;;
17595;SDS011;8916;47.086;15.920;2024-03-07T08:26:02;10.05;;;4.97;;
17595;SDS011;8916;47.086;15.920;2024-03-07T08:28:32;12.85;;;5.28;;
17595;SDS011;8916;47.086;15.920;2024-03-07T08:31:03;10.45;;;5.30;;
17595;SDS011;8916;47.086;15.920;2024-03-07T08:33:32;8.13;;;4.80;;
17595;SDS011;8916;47.086;15.920;2024-03-07T08:36:02;10.00;;;5.00;;
17595;SDS011;8916;47.086;15.920;2024-03-07T08:38:32;9.95;;;4.97;;
17595;SDS011;8916;47.086;15.920;2024-03-07T08:41:01;10.30;;;4.85;;
17595;SDS011;8916;47.086;15.920;2024-03-07T08:43:31;9.13;;;4.75;;
17595;SDS011;8916;47.086;15.920;2024-03-07T08:46:02;9.18;;;4.97;;
17595;SDS011;8916;47.086;15.920;2024-03-07T08:48:31;9.00;;;4.85;;
17595;SDS011;8916;47.086;15.920;2024-03-07T08:51:01;8.02;;;4.65;;
17595;SDS011;8916;47.086;15.920;2024-03-07T08:53:30;8.60;;;4.78;;
17595;SDS011;8916;47.086;15.920;2024-03-07T08:56:01;8.80;;;4.35;;
17595;SDS011;8916;47.086;15.920;2024-03-07T08:58:30;9.30;;;4.50;;
17595;SDS011;8916;47.086;15.920;2024-03-07T09:00:59;9.90;;;4.50;;
17595;SDS011;8916;47.086;15.920;2024-03-07T09:03:30;6.88;;;4.55;;
17595;SDS011;8916;47.086;15.920;2024-03-07T09:05:59;9.63;;;4.97;;
17595;SDS011;8916;47.086;15.920;2024-03-07T09:08:28;9.43;;;4.72;;
17595;SDS011;8916;47.086;15.920;2024-03-07T09:10:58;10.40;;;4.45;;
17595;SDS011;8916;47.086;15.920;2024-03-07T09:13:27;8.68;;;5.03;;
17595;SDS011;8916;47.086;15.920;2024-03-07T09:15:57;10.30;;;4.95;;
17595;SDS011;8916;47.086;15.920;2024-03-07T09:18:26;8.90;;;4.63;;
17595;SDS011;8916;47.086;15.920;2024-03-07T09:20:57;9.00;;;4.10;;
17595;SDS011;8916;47.086;15.920;2024-03-07T09:23:26;8.45;;;4.45;;
17595;SDS011;8916;47.086;15.920;2024-03-07T09:25:55;8.02;;;4.13;;
17595;SDS011;8916;47.086;15.920;2024-03-07T09:28:26;9.02;;;4.60;;
17595;SDS011;8916;47.086;15.920;2024-03-07T09:30:55;8.63;;;4.32;;
17595;SDS011;8916;47.086;15.920;2024-03-07T09:33:24;8.68;;;4.57;;
17595;SDS011;8916;47.086;15.920;2024-03-07T09:35:57;9.38;;;4.53;;
17595;SDS011;8916;47.086;15.920;2024-03-07T09:38:26;9.10;;;4.97;;
17595;SDS011;8916;47.086;15.920;2024-03-07T09:40:55;5.35;;;3.42;;
17595;SDS011;8916;47.086;15.920;2024-03-07T09:43:26;12.07;;;4.32;;
17595;SDS011;8916;47.086;15.920;2024-03-07T09:45:56;10.70;;;4.15;;
17595;SDS011;8916;47.086;15.920;2024-03-07T09:48:26;7.63;;;4.38;;
17595;SDS011;8916;47.086;15.920;2024-03-07T09:50:58;7.78;;;4.20;;
17595;SDS011;8916;47.086;15.920;2024-03-07T09:53:31;7.68;;;4.28;;
17595;SDS011;8916;47.086;15.920;2024-03-07T09:56:00;7.88;;;4.22;;
17595;SDS011;8916;47.086;15.920;2024-03-07T09:58:30;8.32;;;4.57;;
17595;SDS011;8916;47.086;15.920;2024-03-07T10:01:03;8.77;;;4.55;;
17595;SDS011;8916;47.086;15.920;2024-03-07T10:03:39;9.68;;;4.60;;
17595;SDS011;8916;47.086;15.920;2024-03-07T10:06:13;9.52;;;4.72;;
17595;SDS011;8916;47.086;15.920;2024-03-07T10:08:43;9.32;;;4.30;;
17595;SDS011;8916;47.086;15.920;2024-03-07T10:11:13;7.30;;;4.22;;
17595;SDS011;8916;47.086;15.920;2024-03-07T10:13:42;11.45;;;4.63;;
17595;SDS011;8916;47.086;15.920;2024-03-07T10:16:15;12.63;;;4.78;;
17595;SDS011;8916;47.086;15.920;2024-03-07T10:18:45;9.30;;;4.75;;
17595;SDS011;8916;47.086;15.920;2024-03-07T10:21:20;9.98;;;4.97;;
17595;SDS011;8916;47.086;15.920;2024-03-07T10:23:57;9.23;;;4.97;;
17595;SDS011;8916;47.086;15.920;2024-03-07T10:26:35;9.85;;;4.70;;
17595;SDS011;8916;47.086;15.920;2024-03-07T10:29:05;7.22;;;4.07;;
17595;SDS011;8916;47.086;15.920;2024-03-07T10:31:35;9.18;;;4.38;;
17595;SDS011;8916;47.086;15.920;2024-03-07T10:34:15;7.38;;;4.43;;
17595;SDS011;8916;47.086;15.920;2024-03-07T10:36:45;8.50;;;4.03;;
17595;SDS011;8916;47.086;15.920;2024-03-07T10:39:15;11.20;;;4.10;;
17595;SDS011;8916;47.086;15.920;2024-03-07T10:41:49;8.05;;;3.85;;
17595;SDS011;8916;47.086;15.920;2024-03-07T10:44:19;6.82;;;3.50;;
17595;SDS011;8916;47.086;15.920;2024-03-07T10:46:55;6.57;;;3.65;;
17595;SDS011;8916;47.086;15.920;2024-03-07T10:49:26;9.32;;;3.30;;
17595;SDS011;8916;47.086;15.920;2024-03-07T10:52:04;7.68;;;3.75;;
17595;SDS011;8916;47.086;15.920;2024-03-07T10:54:39;5.78;;;3.75;;
17595;SDS011;8916;47.086;15.920;2024-03-07T10:57:23;8.32;;;3.58;;
17595;SDS011;8916;47.086;15.920;2024-03-07T11:00:00;7.15;;;3.67;;
17595;SDS011;8916;47.086;15.920;2024-03-07T11:02:57;6.05;;;3.55;;
17595;SDS011;8916;47.086;15.920;2024-03-07T11:05:29;6.15;;;3.47;;
17595;SDS011;8916;47.086;15.920;2024-03-07T11:08:01;8.52;;;3.65;;
17595;SDS011;8916;47.086;15.920;2024-03-07T11:10:35;6.47;;;3.30;;
17595;SDS011;8916;47.086;15.920;2024-03-07T11:13:05;5.55;;;3.22;;
17595;SDS011;8916;47.086;15.920;2024-03-07T11:15:40;6.75;;;3.58;;
17595;SDS011;8916;47.086;15.920;2024-03-07T11:18:13;7.45;;;3.50;;
17595;SDS011;8916;47.086;15.920;2024-03-07T11:20:43;8.32;;;3.90;;
17595;SDS011;8916;47.086;15.920;2024-03-07T11:23:29;7.85;;;3.72;;
17595;SDS011;8916;47.086;15.920;2024-03-07T11:26:01;7.63;;;4.20;;
17595;SDS011;8916;47.086;15.920;2024-03-07T11:28:36;7.05;;;3.83;;
17595;SDS011;8916;47.086;15.920;2024-03-07T11:31:08;8.10;;;4.18;;
17595;SDS011;8916;47.086;15.920;2024-03-07T11:33:38;5.82;;;3.80;;
17595;SDS011;8916;47.086;15.920;2024-03-07T11:36:12;6.95;;;3.10;;
17595;SDS011;8916;47.086;15.920;2024-03-07T11:39:03;6.32;;;3.40;;
17595;SDS011;8916;47.086;15.920;2024-03-07T11:41:51;6.57;;;3.60;;
17595;SDS011;8916;47.086;15.920;2024-03-07T11:44:21;9.57;;;4.20;;
17595;SDS011;8916;47.086;15.920;2024-03-07T11:46:50;5.03;;;3.20;;
17595;SDS011;8916;47.086;15.920;2024-03-07T11:49:20;6.35;;;3.78;;
17595;SDS011;8916;47.086;15.920;2024-03-07T11:51:49;5.03;;;3.40;;
17595;SDS011;8916;47.086;15.920;2024-03-07T11:54:19;8.10;;;4.38;;
17595;SDS011;8916;47.086;15.920;2024-03-07T11:56:54;6.53;;;3.67;;
17595;SDS011;8916;47.086;15.920;2024-03-07T11:59:24;12.02;;;4.00;;
17595;SDS011;8916;47.086;15.920;2024-03-07T12:02:05;5.13;;;3.30;;
17595;SDS011;8916;47.086;15.920;2024-03-07T12:04:34;7.13;;;3.40;;
17595;SDS011;8916;47.086;15.920;2024-03-07T12:07:03;7.60;;;3.78;;
17595;SDS011;8916;47.086;15.920;2024-03-07T12:09:35;6.95;;;3.65;;
17595;SDS011;8916;47.086;15.920;2024-03-07T12:12:05;5.35;;;3.33;;
17595;SDS011;8916;47.086;15.920;2024-03-07T12:14:36;7.40;;;3.80;;
17595;SDS011;8916;47.086;15.920;2024-03-07T12:17:06;6.32;;;3.75;;
17595;SDS011;8916;47.086;15.920;2024-03-07T12:19:36;6.35;;;4.07;;
17595;SDS011;8916;47.086;15.920;2024-03-07T12:22:07;6.63;;;3.67;;
17595;SDS011;8916;47.086;15.920;2024-03-07T12:24:41;8.05;;;3.70;;
17595;SDS011;8916;47.086;15.920;2024-03-07T12:27:11;8.02;;;3.38;;
17595;SDS011;8916;47.086;15.920;2024-03-07T12:29:43;8.27;;;3.80;;
17595;SDS011;8916;47.086;15.920;2024-03-07T12:32:15;9.90;;;4.32;;
17595;SDS011;8916;47.086;15.920;2024-03-07T12:34:45;6.13;;;3.58;;
17595;SDS011;8916;47.086;15.920;2024-03-07T12:37:14;7.00;;;3.65;;
17595;SDS011;8916;47.086;15.920;2024-03-07T12:39:45;6.53;;;3.83;;
17595;SDS011;8916;47.086;15.920;2024-03-07T12:42:16;5.47;;;3.33;;
17595;SDS011;8916;47.086;15.920;2024-03-07T12:44:45;5.95;;;3.33;;
17595;SDS011;8916;47.086;15.920;2024-03-07T12:47:15;6.65;;;3.90;;
17595;SDS011;8916;47.086;15.920;2024-03-07T12:49:45;7.05;;;4.38;;
17595;SDS011;8916;47.086;15.920;2024-03-07T12:52:15;7.57;;;3.53;;
17595;SDS011;8916;47.086;15.920;2024-03-07T12:54:46;7.20;;;3.50;;
17595;SDS011;8916;47.086;15.920;2024-03-07T12:57:17;8.07;;;4.10;;
17595;SDS011;8916;47.086;15.920;2024-03-07T12:59:46;6.30;;;3.20;;
17595;SDS011;8916;47.086;15.920;2024-03-07T13:02:16;5.32;;;3.10;;
17595;SDS011;8916;47.086;15.920;2024-03-07T13:04:45;5.45;;;3.13;;
17595;SDS011;8916;47.086;15.920;2024-03-07T13:07:18;5.88;;;3.30;;
17595;SDS011;8916;47.086;15.920;2024-03-07T13:09:49;5.40;;;3.03;;
17595;SDS011;8916;47.086;15.920;2024-03-07T13:12:19;4.93;;;3.00;;
17595;SDS011;8916;47.086;15.920;2024-03-07T13:14:48;4.97;;;2.75;;
17595;SDS011;8916;47.086;15.920;2024-03-07T13:17:17;4.82;;;3.10;;
17595;SDS011;8916;47.086;15.920;2024-03-07T13:19:47;6.32;;;3.45;;
17595;SDS011;8916;47.086;15.920;2024-03-07T13:22:27;5.60;;;3.20;;
17595;SDS011;8916;47.086;15.920;2024-03-07T13:25:00;5.40;;;3.05;;
17595;SDS011;8916;47.086;15.920;2024-03-07T13:27:43;6.35;;;3.25;;
17595;SDS011;8916;47.086;15.920;2024-03-07T13:30:27;5.38;;;3.20;;
17595;SDS011;8916;47.086;15.920;2024-03-07T13:32:57;5.50;;;3.22;;
17595;SDS011;8916;47.086;15.920;2024-03-07T13:35:28;4.88;;;2.92;;
17595;SDS011;8916;47.086;15.920;2024-03-07T13:37:58;6.88;;;3.20;;
17595;SDS011;8916;47.086;15.920;2024-03-07T13:40:29;6.85;;;3.33;;
17595;SDS011;8916;47.086;15.920;2024-03-07T13:42:59;6.20;;;3.05;;
17595;SDS011;8916;47.086;15.920;2024-03-07T13:45:29;5.32;;;3.15;;
17595;SDS011;8916;47.086;15.920;2024-03-07T13:48:06;8.43;;;3.85;;
17595;SDS011;8916;47.086;15.920;2024-03-07T13:50:38;8.48;;;4.50;;
17595;SDS011;8916;47.086;15.920;2024-03-07T13:53:12;6.97;;;3.35;;
17595;SDS011;8916;47.086;15.920;2024-03-07T13:55:48;7.13;;;3.30;;
17595;SDS011;8916;47.086;15.920;2024-03-07T13:58:34;6.05;;;3.28;;
17595;SDS011;8916;47.086;15.920;2024-03-07T14:01:23;14.10;;;4.88;;
17595;SDS011;8916;47.086;15.920;2024-03-07T14:04:14;10.90;;;5.22;;
17595;SDS011;8916;47.086;15.920;2024-03-07T14:07:44;11.43;;;4.25;;
17595;SDS011;8916;47.086;15.920;2024-03-07T14:10:51;21.88;;;8.73;;
17595;SDS011;8916;47.086;15.920;2024-03-07T14:14:09;10.95;;;4.95;;
17595;SDS011;8916;47.086;15.920;2024-03-07T14:17:09;9.13;;;4.25;;
17595;SDS011;8916;47.086;15.920;2024-03-07T14:20:13;7.53;;;3.90;;
17595;SDS011;8916;47.086;15.920;2024-03-07T14:23:59;8.85;;;4.15;;
17595;SDS011;8916;47.086;15.920;2024-03-07T14:27:11;12.90;;;4.75;;
17595;SDS011;8916;47.086;15.920;2024-03-07T14:29:52;7.38;;;3.83;;
17595;SDS011;8916;47.086;15.920;2024-03-07T14:32:39;8.95;;;4.07;;
17595;SDS011;8916;47.086;15.920;2024-03-07T14:35:17;9.07;;;4.55;;
17595;SDS011;8916;47.086;15.920;2024-03-07T14:38:01;9.63;;;4.25;;
17595;SDS011;8916;47.086;15.920;2024-03-07T14:40:35;8.43;;;4.55;;
17595;SDS011;8916;47.086;15.920;2024-03-07T14:43:05;11.02;;;4.13;;
17595;SDS011;8916;47.086;15.920;2024-03-07T14:45:36;7.68;;;3.97;;
17595;SDS011;8916;47.086;15.920;2024-03-07T14:48:07;7.60;;;4.32;;
17595;SDS011;8916;47.086;15.920;2024-03-07T14:50:39;9.13;;;4.90;;
17595;SDS011;8916;47.086;15.920;2024-03-07T14:53:12;13.52;;;5.68;;
17595;SDS011;8916;47.086;15.920;2024-03-07T14:55:44;12.52;;;6.25;;
17595;SDS011;8916;47.086;15.920;2024-03-07T14:58:15;12.80;;;5.90;;
17595;SDS011;8916;47.086;15.920;2024-03-07T15:00:45;12.40;;;6.20;;
17595;SDS011;8916;47.086;15.920;2024-03-07T15:03:24;12.90;;;5.85;;